Time;durP1;ratioP1;P1;durP2;ratioP2;P2;SDS_P1;SDS_P2;PMS_P1;PMS_P2;Temp;Humidity;BMP_temperature;BMP_pressure;BME280_temperature;BME280_humidity;BME280_pressure;Samples;Min_cycle;Max_cycle;Signal;HPM_P1;HPM_P2
2020/12/27 00:04:31;;;;;;;24.08;3.35;;;26.70;83.60;;;;;;6234976;23;20371;-89
2020/12/27 00:13:12;;;;;;;8.23;3.40;;;26.60;87.70;;;;;;6119479;23;20002;-91
2020/12/27 00:16:09;;;;;;;4.17;3.00;;;26.50;87.50;;;;;;6029955;23;20015;-89
2020/12/27 00:18:43;;;;;;;7.93;3.72;;;26.50;87.00;;;;;;6029968;22;20003;-88
2020/12/27 00:21:21;;;;;;;6.35;3.28;;;26.50;87.90;;;;;;6243882;23;20000;-93
2020/12/27 00:24:21;;;;;;;10.25;4.18;;;26.40;89.80;;;;;;6191800;23;20012;-93
2020/12/27 00:30:13;;;;;;;5.07;3.08;;;26.40;89.20;;;;;;6216900;22;20042;-92
2020/12/27 00:39:36;;;;;;;11.07;3.40;;;26.60;88.40;;;;;;6269845;22;20004;-93
2020/12/27 00:42:10;;;;;;;5.28;3.08;;;26.60;89.70;;;;;;6246476;22;20027;-94
2020/12/27 00:45:27;;;;;;;10.10;4.88;;;26.60;88.60;;;;;;6202722;23;20005;-94
2020/12/27 00:48:33;;;;;;;14.07;9.15;;;26.60;90.00;;;;;;6211442;23;20017;-91
2020/12/27 00:51:40;;;;;;;;;;;;;;;;;;;;;
2020/12/27 00:54:44;;;;;;;7.53;4.45;;;26.60;88.30;;;;;;6080638;23;20007;-92
2020/12/27 00:57:53;;;;;;;9.18;4.47;;;26.60;87.90;;;;;;6033674;23;20027;-92
2020/12/27 01:00:24;;;;;;;9.85;3.40;;;26.60;87.90;;;;;;6081416;23;20014;-92
2020/12/27 01:02:51;;;;;;;4.18;3.38;;;26.60;89.50;;;;;;6200650;23;19997;-92
2020/12/27 01:06:38;;;;;;;;;;;;;;;;;;;;;
2020/12/27 01:09:11;;;;;;;5.82;3.25;;;26.30;90.00;;;;;;5974661;23;20004;-92
2020/12/27 01:12:13;;;;;;;6.40;3.60;;;26.10;89.80;;;;;;6059029;23;20047;-92
2020/12/27 01:14:43;;;;;;;6.85;3.83;;;25.90;90.50;;;;;;6077546;23;20010;-91
2020/12/27 01:17:14;;;;;;;5.88;3.65;;;25.80;90.40;;;;;;6081165;23;20007;-92
2020/12/27 01:23:14;;;;;;;4.85;2.50;;;25.90;90.70;;;;;;6000355;24;20020;-92
2020/12/27 01:25:49;;;;;;;7.82;2.42;;;25.80;90.80;;;;;;6026728;23;20120;-92
2020/12/27 01:28:19;;;;;;;8.75;2.95;;;25.80;91.00;;;;;;6078906;23;20002;-92
2020/12/27 01:31:04;;;;;;;4.45;2.67;;;25.70;91.20;;;;;;6135764;23;20063;-92
2020/12/27 01:33:46;;;;;;;6.15;3.35;;;25.70;91.50;;;;;;6182186;23;19997;-91
2020/12/27 01:36:46;;;;;;;;;;;;;;;;;;;;;
2020/12/27 01:39:22;;;;;;;5.55;2.47;;;25.80;90.80;;;;;;6198956;22;20008;-90
2020/12/27 01:42:10;;;;;;;3.47;2.42;;;25.90;91.00;;;;;;6237184;23;19996;-90
2020/12/27 01:48:37;;;;;;;;;;;;;;;;;;;;;
2020/12/27 01:55:32;;;;;;;4.40;2.80;;;26.00;91.20;;;;;;6264737;23;20031;-90
2020/12/27 01:58:51;;;;;;;3.83;2.60;;;26.00;91.10;;;;;;6236559;23;20000;-91
2020/12/27 02:02:26;;;;;;;;;;;;;;;;;;;;;
2020/12/27 02:10:40;;;;;;;;;;;;;;;;;;;;;
2020/12/27 02:12:45;;;;;;;3.92;2.45;;;26.10;90.90;;;;;;5784068;24;20011;-94
2020/12/27 02:16:00;;;;;;;6.68;3.00;;;26.00;91.10;;;;;;5803803;24;20105;-94
2020/12/27 02:18:28;;;;;;;8.18;3.08;;;26.10;90.40;;;;;;5896345;24;20037;-93
2020/12/27 02:32:33;;;;;;;5.68;3.22;;;25.70;91.60;;;;;;6172878;23;20162;-95
2020/12/27 03:08:27;;;;;;;6.68;4.75;;;25.90;91.40;;;;;;6189116;22;20036;-94
2020/12/27 03:22:18;;;;;;;9.50;4.22;;;25.70;92.00;;;;;;6230518;23;20012;-93
2020/12/27 03:24:47;;;;;;;6.07;4.30;;;25.60;91.90;;;;;;6239658;23;20023;-92
2020/12/27 03:28:34;;;;;;;6.05;4.68;;;25.60;91.70;;;;;;6210898;23;20223;-94
2020/12/27 03:30:53;;;;;;;6.45;4.85;;;25.60;92.30;;;;;;6222821;23;20034;-93
2020/12/27 03:33:20;;;;;;;6.85;4.82;;;25.60;91.80;;;;;;6236366;23;19993;-93
2020/12/27 03:35:58;;;;;;;7.40;5.00;;;25.50;92.00;;;;;;6239394;23;20003;-93
2020/12/27 03:38:33;;;;;;;5.80;4.18;;;25.50;91.80;;;;;;6242601;22;19996;-93
2020/12/27 03:41:03;;;;;;;7.32;4.60;;;25.50;92.30;;;;;;6236595;23;20007;-93
2020/12/27 03:43:31;;;;;;;6.70;4.43;;;25.40;92.10;;;;;;6237331;23;20000;-93
2020/12/27 03:46:48;;;;;;;6.57;3.72;;;25.40;92.60;;;;;;6235645;23;20004;-93
2020/12/27 03:50:14;;;;;;;6.00;3.67;;;25.30;92.90;;;;;;6262419;23;20000;-93
2020/12/27 03:53:40;;;;;;;;;;;;;;;;;;;;;
2020/12/27 04:04:32;;;;;;;;;;;;;;;;;;;;;
2020/12/27 04:07:40;;;;;;;6.03;4.13;;;25.20;93.10;;;;;;5943928;24;19998;-93
2020/12/27 04:10:17;;;;;;;11.23;5.05;;;25.30;92.90;;;;;;5888460;24;20033;-93
2020/12/27 04:15:09;;;;;;;16.90;5.90;;;25.30;93.00;;;;;;6225560;23;20005;-93
2020/12/27 04:17:45;;;;;;;20.58;6.85;;;25.30;92.80;;;;;;6204913;23;19999;-93
2020/12/27 04:20:11;;;;;;;11.85;4.95;;;25.20;92.90;;;;;;6204841;23;19980;-93
2020/12/27 04:22:41;;;;;;;9.00;4.53;;;25.20;92.80;;;;;;6202978;23;19997;-93
2020/12/27 04:25:11;;;;;;;8.75;4.93;;;25.10;93.10;;;;;;6204324;23;19992;-94
2020/12/27 04:27:37;;;;;;;8.07;4.28;;;25.10;92.70;;;;;;6203878;23;20003;-93
2020/12/27 04:30:10;;;;;;;8.35;4.60;;;25.10;92.80;;;;;;6229503;23;20027;-93
2020/12/27 04:32:37;;;;;;;5.82;4.55;;;25.20;92.90;;;;;;6204323;23;19992;-93
2020/12/27 04:35:05;;;;;;;7.00;4.88;;;25.20;92.90;;;;;;6203752;23;20075;-93
2020/12/27 04:37:32;;;;;;;9.55;4.38;;;25.20;92.50;;;;;;6202359;23;20047;-93
2020/12/27 04:39:59;;;;;;;8.40;5.30;;;25.30;92.40;;;;;;6202564;23;20031;-93
2020/12/27 04:42:25;;;;;;;8.60;5.38;;;25.30;92.00;;;;;;6202511;23;20035;-93
2020/12/27 04:44:56;;;;;;;8.98;4.97;;;25.30;92.10;;;;;;6203464;23;20007;-93
2020/12/27 04:47:28;;;;;;;7.25;4.82;;;25.30;92.10;;;;;;6202356;23;20023;-92
2020/12/27 04:49:57;;;;;;;9.73;5.22;;;25.30;91.70;;;;;;6203067;23;19997;-92
2020/12/27 04:52:24;;;;;;;7.78;4.35;;;25.30;92.30;;;;;;6207563;23;20008;-93
2020/12/27 04:54:51;;;;;;;6.35;4.68;;;25.30;92.50;;;;;;6202640;23;20297;-93
2020/12/27 04:57:19;;;;;;;7.38;4.63;;;25.30;92.40;;;;;;6203406;23;20011;-93
2020/12/27 04:59:49;;;;;;;5.45;3.65;;;25.20;92.60;;;;;;6205073;23;20023;-94
2020/12/27 05:02:23;;;;;;;7.32;3.92;;;25.10;92.40;;;;;;6205668;23;19996;-93
2020/12/27 05:04:50;;;;;;;4.07;3.08;;;25.10;92.60;;;;;;6227789;23;20013;-92
2020/12/27 05:07:21;;;;;;;5.97;3.67;;;25.10;91.60;;;;;;6206689;23;20023;-93
2020/12/27 05:09:51;;;;;;;5.95;3.20;;;25.10;92.90;;;;;;6202581;23;20004;-93
2020/12/27 05:12:18;;;;;;;4.30;3.35;;;25.00;92.20;;;;;;6204667;23;19997;-93
2020/12/27 05:14:48;;;;;;;4.63;3.30;;;25.00;92.90;;;;;;6202935;23;20307;-93
2020/12/27 05:17:15;;;;;;;8.43;3.42;;;24.90;92.80;;;;;;6202241;23;19999;-92
2020/12/27 05:19:43;;;;;;;19.48;4.75;;;25.00;92.50;;;;;;6203807;23;20024;-93
2020/12/27 05:22:10;;;;;;;17.88;4.35;;;24.90;92.90;;;;;;6202041;23;20000;-92
2020/12/27 05:24:39;;;;;;;7.28;3.67;;;24.90;92.80;;;;;;6203153;23;20016;-92
2020/12/27 05:27:14;;;;;;;11.25;2.92;;;24.80;92.90;;;;;;6203388;23;19997;-92
2020/12/27 05:29:42;;;;;;;7.75;3.83;;;24.90;92.40;;;;;;6203808;23;20031;-93
2020/12/27 05:32:10;;;;;;;7.88;3.10;;;24.90;92.60;;;;;;6203039;23;19989;-93
2020/12/27 05:34:40;;;;;;;6.45;2.88;;;24.90;92.90;;;;;;6202748;23;19996;-92
2020/12/27 05:37:10;;;;;;;8.43;3.30;;;24.90;92.60;;;;;;6202516;23;19992;-92
2020/12/27 05:39:37;;;;;;;7.05;3.08;;;24.90;92.80;;;;;;6202224;23;20004;-92
2020/12/27 05:42:05;;;;;;;4.68;2.65;;;24.80;93.10;;;;;;6202718;23;20146;-92
2020/12/27 05:44:35;;;;;;;4.57;2.55;;;24.80;93.00;;;;;;6201842;23;19997;-92
2020/12/27 05:47:06;;;;;;;4.25;2.15;;;24.80;92.60;;;;;;6201783;23;19992;-93
2020/12/27 05:49:33;;;;;;;4.07;2.60;;;24.90;92.60;;;;;;6201983;23;20221;-93
2020/12/27 05:52:06;;;;;;;6.88;3.30;;;24.90;92.40;;;;;;6201732;23;19992;-93
2020/12/27 05:54:35;;;;;;;6.10;3.30;;;24.80;92.50;;;;;;6202065;23;20043;-93
2020/12/27 05:57:05;;;;;;;4.22;2.75;;;24.80;93.10;;;;;;6202956;23;20060;-93
2020/12/27 05:59:36;;;;;;;4.20;2.72;;;24.80;93.00;;;;;;6202685;23;20044;-92
2020/12/27 06:02:03;;;;;;;3.65;2.80;;;24.80;93.00;;;;;;6203257;23;20084;-92
2020/12/27 06:04:39;;;;;;;4.13;2.40;;;24.80;92.90;;;;;;6202428;23;19997;-92
2020/12/27 06:07:07;;;;;;;7.70;3.13;;;24.80;92.70;;;;;;6204039;23;19997;-93
2020/12/27 06:10:06;;;;;;;4.53;3.20;;;24.90;92.70;;;;;;6202410;23;20289;-92
2020/12/27 06:13:18;;;;;;;6.05;3.38;;;24.80;92.60;;;;;;6204272;23;19993;-94
2020/12/27 06:15:58;;;;;;;4.45;3.60;;;24.80;92.70;;;;;;6170915;23;20009;-92
2020/12/27 06:18:40;;;;;;;4.55;3.03;;;24.80;92.60;;;;;;6197915;23;19993;-93
2020/12/27 06:21:08;;;;;;;4.35;3.58;;;24.80;92.90;;;;;;6172985;23;20056;-93
2020/12/27 06:23:36;;;;;;;4.25;2.95;;;24.70;92.80;;;;;;6171352;23;20020;-93
2020/12/27 06:26:06;;;;;;;5.65;3.85;;;24.80;92.90;;;;;;6171315;23;20001;-93
2020/12/27 06:28:34;;;;;;;6.53;3.80;;;24.70;93.00;;;;;;6170763;23;20324;-94
2020/12/27 06:31:09;;;;;;;5.43;3.60;;;24.70;93.10;;;;;;6172404;23;20064;-93
2020/12/27 06:33:38;;;;;;;3.75;2.90;;;24.70;93.10;;;;;;6174118;23;19997;-93
2020/12/27 06:36:27;;;;;;;7.32;2.90;;;24.60;93.60;;;;;;6172923;23;20008;-92
2020/12/27 06:38:53;;;;;;;4.63;2.22;;;24.50;93.90;;;;;;6173662;23;19996;-92
2020/12/27 06:41:23;;;;;;;4.72;3.17;;;24.50;94.40;;;;;;6172123;23;20004;-92
2020/12/27 06:43:51;;;;;;;5.25;4.15;;;24.50;94.50;;;;;;6172028;23;20266;-93
2020/12/27 06:46:26;;;;;;;10.63;6.72;;;24.50;94.50;;;;;;6172892;23;20021;-93
2020/12/27 06:49:13;;;;;;;6.47;5.22;;;24.50;94.40;;;;;;6172500;23;20266;-94
2020/12/27 06:51:43;;;;;;;6.43;3.88;;;24.50;94.80;;;;;;6172174;23;20009;-93
2020/12/27 06:54:12;;;;;;;6.05;4.60;;;24.40;95.00;;;;;;6171367;23;19997;-93
2020/12/27 06:56:40;;;;;;;6.40;5.38;;;24.30;95.10;;;;;;6198879;23;19997;-92
2020/12/27 06:59:07;;;;;;;9.20;5.88;;;24.40;95.20;;;;;;6172098;23;20001;-91
2020/12/27 07:01:34;;;;;;;8.43;5.38;;;24.40;95.10;;;;;;6171758;23;19997;-91
2020/12/27 07:04:20;;;;;;;9.30;5.97;;;24.40;95.10;;;;;;6171698;23;20024;-92
2020/12/27 07:06:49;;;;;;;4.70;3.55;;;24.40;95.20;;;;;;6172743;23;20108;-93
2020/12/27 07:09:27;;;;;;;7.80;3.80;;;24.40;95.30;;;;;;6172892;23;19997;-94
2020/12/27 07:12:07;;;;;;;7.70;3.13;;;24.40;95.40;;;;;;6172259;23;20008;-93
2020/12/27 07:14:41;;;;;;;5.82;3.03;;;24.40;95.50;;;;;;6189320;23;20285;-93
2020/12/27 07:17:10;;;;;;;5.43;3.08;;;24.50;95.40;;;;;;6201622;23;19996;-94
2020/12/27 07:19:39;;;;;;;2.92;2.60;;;24.50;95.40;;;;;;6235277;23;19984;-92
2020/12/27 07:22:11;;;;;;;4.10;2.33;;;24.50;95.00;;;;;;6202311;23;20024;-92
2020/12/27 07:24:40;;;;;;;3.67;2.17;;;24.60;95.10;;;;;;6201929;23;19997;-92
2020/12/27 07:27:15;;;;;;;2.75;2.20;;;24.60;95.00;;;;;;6202328;23;20031;-93
2020/12/27 07:29:55;;;;;;;5.68;2.83;;;24.60;94.90;;;;;;6200998;23;20004;-91
2020/12/27 07:32:23;;;;;;;3.72;2.15;;;24.60;94.90;;;;;;6201308;23;20047;-93
2020/12/27 07:34:53;;;;;;;6.20;2.35;;;24.60;95.00;;;;;;6201641;23;19997;-94
2020/12/27 07:37:26;;;;;;;4.20;2.60;;;24.50;95.00;;;;;;6201400;23;19996;-93
2020/12/27 07:39:56;;;;;;;3.47;2.45;;;24.50;95.10;;;;;;6201916;23;19996;-94
2020/12/27 07:42:31;;;;;;;5.75;3.03;;;24.60;94.90;;;;;;6201397;23;20035;-93
2020/12/27 07:45:00;;;;;;;5.25;3.08;;;24.60;94.70;;;;;;6201906;23;20039;-92
2020/12/27 07:47:28;;;;;;;3.30;2.80;;;24.60;94.60;;;;;;6201534;23;20001;-93
2020/12/27 07:50:11;;;;;;;4.50;3.08;;;24.70;94.50;;;;;;6201272;23;20001;-92
2020/12/27 07:55:26;;;;;;;5.93;3.25;;;24.80;94.20;;;;;;6184143;23;20017;-94
2020/12/27 07:57:55;;;;;;;4.35;3.38;;;24.80;94.10;;;;;;6198881;23;19992;-94
2020/12/27 08:00:29;;;;;;;7.65;3.20;;;24.80;93.90;;;;;;6197140;23;20019;-94
2020/12/27 08:02:57;;;;;;;3.70;2.65;;;24.80;93.50;;;;;;6201802;23;20020;-93
2020/12/27 08:05:23;;;;;;;5.20;3.22;;;24.90;93.60;;;;;;6229370;23;20003;-95
2020/12/27 08:07:53;;;;;;;3.78;2.40;;;24.90;93.70;;;;;;6201285;23;19988;-94
2020/12/27 08:10:25;;;;;;;4.88;2.97;;;24.90;93.50;;;;;;6201510;23;20008;-94
2020/12/27 08:12:54;;;;;;;2.65;2.22;;;24.80;93.50;;;;;;6200409;23;19993;-94
2020/12/27 08:15:22;;;;;;;8.52;3.00;;;24.80;93.50;;;;;;6201296;23;20315;-95
2020/12/27 08:17:54;;;;;;;4.03;2.28;;;24.80;93.30;;;;;;6201804;23;19993;-94
2020/12/27 08:20:22;;;;;;;4.53;3.15;;;24.90;93.30;;;;;;6201450;23;20012;-95
2020/12/27 08:22:58;;;;;;;3.70;2.72;;;24.90;93.20;;;;;;6201367;23;20055;-95
2020/12/27 08:25:26;;;;;;;5.22;2.65;;;24.80;93.10;;;;;;6201326;23;20011;-95
2020/12/27 08:27:57;;;;;;;5.80;2.55;;;24.80;93.20;;;;;;6201641;23;20016;-95
2020/12/27 08:30:25;;;;;;;3.38;2.47;;;24.80;93.30;;;;;;6195793;23;20027;-95
2020/12/27 08:33:04;;;;;;;4.70;3.10;;;24.70;93.00;;;;;;6177210;23;19993;-95
2020/12/27 08:36:01;;;;;;;4.10;2.08;;;24.80;93.10;;;;;;6230391;23;20004;-96
2020/12/27 08:38:35;;;;;;;5.25;2.50;;;24.80;92.80;;;;;;6165785;23;20029;-94
2020/12/27 08:41:26;;;;;;;3.47;2.50;;;24.80;92.70;;;;;;6165017;23;19997;-94
2020/12/27 08:44:17;;;;;;;3.65;2.55;;;24.80;92.80;;;;;;6140977;23;20174;-95
2020/12/27 08:46:49;;;;;;;4.53;2.65;;;24.80;92.80;;;;;;6141060;23;20372;-94
2020/12/27 08:49:36;;;;;;;6.40;2.40;;;24.80;92.70;;;;;;6165453;23;20052;-95
2020/12/27 08:52:20;;;;;;;4.13;2.30;;;24.70;92.80;;;;;;6165642;23;19994;-94
2020/12/27 08:55:05;;;;;;;3.22;2.45;;;24.70;92.70;;;;;;6167077;23;20018;-94
2020/12/27 08:57:33;;;;;;;5.50;2.70;;;24.70;92.70;;;;;;6164655;23;20026;-93
2020/12/27 09:00:13;;;;;;;3.33;2.72;;;24.60;92.80;;;;;;6166145;23;20048;-94
2020/12/27 09:02:41;;;;;;;3.90;2.45;;;24.60;93.10;;;;;;6165511;23;19997;-94
2020/12/27 09:05:12;;;;;;;4.15;2.50;;;24.60;93.00;;;;;;6140246;23;20032;-94
2020/12/27 09:07:46;;;;;;;3.83;2.78;;;24.60;93.10;;;;;;6140244;23;19997;-94
2020/12/27 09:10:27;;;;;;;2.95;2.60;;;24.60;93.00;;;;;;6193899;23;20313;-94
2020/12/27 09:13:02;;;;;;;5.50;2.72;;;24.60;93.10;;;;;;6199458;23;20036;-93
2020/12/27 09:15:34;;;;;;;4.63;2.92;;;24.60;93.00;;;;;;6199134;23;20064;-93
2020/12/27 09:18:09;;;;;;;3.83;2.33;;;24.60;92.90;;;;;;6198521;23;20092;-92
2020/12/27 09:20:44;;;;;;;4.32;2.42;;;24.60;92.80;;;;;;6198627;23;20251;-92
2020/12/27 09:23:20;;;;;;;4.80;2.85;;;24.60;93.20;;;;;;6198582;23;19996;-92
2020/12/27 09:25:48;;;;;;;4.10;2.47;;;24.50;93.10;;;;;;6198693;23;20004;-93
2020/12/27 09:28:17;;;;;;;4.07;2.38;;;24.50;92.80;;;;;;6225464;23;19989;-94
2020/12/27 09:30:45;;;;;;;2.70;2.17;;;24.60;92.80;;;;;;6227229;23;19996;-95
2020/12/27 09:33:12;;;;;;;5.60;2.33;;;24.60;92.60;;;;;;6200008;23;19999;-94
2020/12/27 09:35:43;;;;;;;6.85;3.13;;;24.60;92.70;;;;;;6200207;23;20000;-94
2020/12/27 09:38:32;;;;;;;2.58;2.25;;;24.70;92.80;;;;;;6200409;23;20041;-94
2020/12/27 09:41:08;;;;;;;4.40;2.10;;;24.70;92.40;;;;;;6213436;23;19996;-90
2020/12/27 09:47:01;;;;;;;2.63;1.90;;;24.70;92.50;;;;;;6244631;23;20047;-91
2020/12/27 09:49:31;;;;;;;4.10;1.88;;;24.70;92.20;;;;;;6218443;23;20008;-90
2020/12/27 09:52:12;;;;;;;3.08;1.92;;;24.70;92.10;;;;;;6218004;23;20016;-93
2020/12/27 09:54:41;;;;;;;4.72;2.20;;;24.60;91.90;;;;;;6216318;23;20021;-95
2020/12/27 09:57:22;;;;;;;2.15;1.77;;;24.60;92.30;;;;;;6217531;23;20008;-92
2020/12/27 09:59:52;;;;;;;3.73;2.30;;;24.40;92.90;;;;;;6218067;23;19999;-92
2020/12/27 10:02:21;;;;;;;3.78;2.55;;;24.50;92.90;;;;;;6212231;23;20174;-94
2020/12/27 10:04:49;;;;;;;3.25;2.60;;;24.60;92.70;;;;;;6202582;23;20004;-94
2020/12/27 10:07:16;;;;;;;10.43;4.35;;;24.60;92.50;;;;;;6205289;23;19997;-95
2020/12/27 10:09:45;;;;;;;8.20;3.50;;;24.70;92.50;;;;;;6203369;23;20007;-96
2020/12/27 10:12:45;;;;;;;4.80;2.67;;;24.70;92.50;;;;;;6205588;23;19996;-95
2020/12/27 10:15:23;;;;;;;;;;;24.70;92.80;;;;;;6225887;23;20023;-96
2020/12/27 10:17:53;;;;;;;54.17;37.38;;;24.60;93.10;;;;;;6204985;23;19907;-94
2020/12/27 10:20:20;;;;;;;19.75;13.95;;;24.70;92.80;;;;;;6201098;23;19993;-92
2020/12/27 10:23:23;;;;;;;;;;;;;;;;;;;;;
2020/12/27 10:26:15;;;;;;;;;;;;;;;;;;;;;
2020/12/27 10:29:16;;;;;;;9.20;6.38;;;24.80;93.00;;;;;;6225973;23;19900;-94
2020/12/27 10:31:48;;;;;;;8.52;5.78;;;24.80;93.10;;;;;;6184526;23;20048;-93
2020/12/27 10:34:15;;;;;;;5.83;4.10;;;24.90;93.00;;;;;;6200969;23;20181;-93
2020/12/27 10:36:46;;;;;;;6.22;4.30;;;24.90;93.30;;;;;;6200581;23;20247;-94
2020/12/27 10:39:13;;;;;;;4.75;3.95;;;24.90;93.30;;;;;;6200344;23;19993;-93
2020/12/27 10:41:41;;;;;;;4.78;3.78;;;24.90;93.60;;;;;;6200282;23;19997;-93
2020/12/27 10:44:10;;;;;;;5.45;3.78;;;24.90;93.50;;;;;;6199998;23;20039;-94
2020/12/27 10:46:37;;;;;;;5.80;3.75;;;24.90;93.30;;;;;;6200198;23;20056;-93
2020/12/27 10:49:04;;;;;;;4.47;3.30;;;24.80;93.80;;;;;;6200098;23;20019;-94
2020/12/27 10:51:38;;;;;;;7.57;4.22;;;24.80;93.90;;;;;;6200327;23;19992;-93
2020/12/27 10:54:06;;;;;;;8.82;3.90;;;24.70;94.00;;;;;;6199394;23;20004;-93
2020/12/27 10:56:33;;;;;;;6.15;3.33;;;24.50;94.70;;;;;;6199875;23;20019;-93
2020/12/27 10:59:00;;;;;;;7.93;3.42;;;24.50;94.60;;;;;;6201135;23;20063;-94
2020/12/27 11:01:27;;;;;;;11.57;3.55;;;24.60;94.50;;;;;;6199997;23;20024;-94
2020/12/27 11:03:54;;;;;;;8.65;3.33;;;24.60;94.10;;;;;;6200394;23;20027;-93
2020/12/27 11:06:31;;;;;;;7.63;3.55;;;24.70;94.00;;;;;;6201581;23;20189;-96
2020/12/27 11:08:59;;;;;;;6.40;3.30;;;24.70;94.10;;;;;;6201694;23;20001;-95
2020/12/27 11:11:56;;;;;;;7.93;3.63;;;24.70;93.90;;;;;;6204027;23;20343;-96
2020/12/27 11:14:26;;;;;;;6.45;3.03;;;24.70;93.60;;;;;;6173145;23;20000;-93
2020/12/27 11:16:52;;;;;;;4.95;3.00;;;24.80;93.40;;;;;;6176439;23;20353;-94
2020/12/27 11:19:19;;;;;;;4.63;2.97;;;24.80;93.20;;;;;;6174088;23;20308;-94
2020/12/27 11:21:47;;;;;;;6.10;3.08;;;24.80;93.20;;;;;;6175039;23;20001;-94
2020/12/27 11:24:15;;;;;;;3.60;2.70;;;24.80;93.30;;;;;;6175421;23;20017;-94
2020/12/27 11:26:42;;;;;;;5.85;2.95;;;24.80;93.30;;;;;;6172983;23;20171;-95
2020/12/27 11:29:08;;;;;;;4.85;3.47;;;24.90;93.10;;;;;;6177610;23;20028;-94
2020/12/27 11:31:47;;;;;;;4.07;3.20;;;24.90;93.00;;;;;;6175484;23;20020;-96
2020/12/27 11:34:15;;;;;;;6.43;3.25;;;24.90;93.00;;;;;;6173387;23;20285;-94
2020/12/27 11:36:47;;;;;;;6.28;3.10;;;24.90;93.10;;;;;;6173299;23;20314;-93
2020/12/27 11:39:52;;;;;;;5.97;3.30;;;24.90;92.70;;;;;;6175066;23;19993;-95
2020/12/27 11:42:18;;;;;;;6.68;3.05;;;24.90;92.80;;;;;;6175714;23;20052;-92
2020/12/27 11:44:48;;;;;;;6.15;3.38;;;24.90;93.00;;;;;;6174686;23;20017;-94
2020/12/27 11:47:16;;;;;;;6.05;3.20;;;25.10;92.30;;;;;;6171677;23;20257;-93
2020/12/27 11:50:01;;;;;;;5.15;3.25;;;25.20;92.10;;;;;;6171586;23;19997;-93
2020/12/27 11:52:27;;;;;;;7.47;3.17;;;25.30;91.80;;;;;;6171381;23;20482;-92
2020/12/27 11:54:54;;;;;;;4.53;3.38;;;25.40;91.80;;;;;;6171767;23;20013;-93
2020/12/27 11:57:21;;;;;;;5.55;3.25;;;25.40;92.00;;;;;;6170574;23;20197;-92
2020/12/27 11:59:47;;;;;;;6.97;3.70;;;25.40;92.10;;;;;;6170678;23;20024;-93
2020/12/27 12:02:14;;;;;;;6.53;4.10;;;25.50;92.40;;;;;;6170435;23;20316;-92
2020/12/27 12:04:41;;;;;;;6.70;3.85;;;25.40;91.60;;;;;;6170597;23;20012;-91
2020/12/27 12:07:11;;;;;;;6.45;4.18;;;25.40;92.10;;;;;;6173681;23;19997;-93
2020/12/27 12:09:37;;;;;;;8.88;4.45;;;25.50;92.30;;;;;;6170936;23;20001;-93
2020/12/27 12:12:07;;;;;;;7.72;4.38;;;25.70;91.80;;;;;;6199496;23;19997;-95
2020/12/27 12:14:33;;;;;;;8.35;4.93;;;25.90;91.70;;;;;;6202350;23;20000;-92
2020/12/27 12:17:00;;;;;;;9.82;4.00;;;26.10;91.20;;;;;;6201071;23;19989;-93
2020/12/27 12:19:26;;;;;;;6.18;4.00;;;26.20;91.10;;;;;;6228956;23;20055;-94
2020/12/27 12:21:53;;;;;;;5.32;4.10;;;26.30;91.00;;;;;;6200816;23;19993;-94
2020/12/27 12:24:22;;;;;;;4.70;3.38;;;26.30;91.10;;;;;;6202396;23;20189;-93
2020/12/27 12:26:55;;;;;;;6.45;3.72;;;26.10;91.00;;;;;;6227773;23;19999;-93
2020/12/27 12:29:22;;;;;;;5.05;3.30;;;26.10;91.30;;;;;;6202770;23;20004;-93
2020/12/27 12:32:21;;;;;;;7.15;3.90;;;26.10;91.60;;;;;;6182130;23;20012;-94
2020/12/27 12:34:50;;;;;;;5.10;3.50;;;26.20;91.60;;;;;;6114134;23;20010;-91
2020/12/27 12:37:20;;;;;;;4.72;3.20;;;26.20;91.30;;;;;;6138709;23;20320;-93
2020/12/27 12:39:46;;;;;;;4.88;3.15;;;26.10;91.50;;;;;;6115274;23;19998;-93
2020/12/27 12:42:15;;;;;;;4.32;2.97;;;26.20;91.60;;;;;;6121135;23;20262;-92
2020/12/27 12:44:45;;;;;;;6.68;3.53;;;26.20;91.40;;;;;;6117327;23;20002;-92
2020/12/27 12:47:26;;;;;;;11.82;4.82;;;26.20;91.40;;;;;;6142818;23;20001;-94
2020/12/27 12:49:56;;;;;;;10.07;4.82;;;26.30;91.40;;;;;;6117698;23;20072;-92
2020/12/27 12:52:24;;;;;;;3.85;2.97;;;26.50;91.20;;;;;;6119112;23;19994;-89
2020/12/27 12:54:58;;;;;;;5.72;2.63;;;26.40;90.90;;;;;;6145368;23;19989;-90
2020/12/27 12:58:03;;;;;;;5.00;2.50;;;26.50;90.90;;;;;;6121755;23;20059;-92
2020/12/27 13:00:38;;;;;;;4.25;2.60;;;26.50;90.90;;;;;;6195225;23;20012;-93
2020/12/27 13:03:05;;;;;;;8.05;2.78;;;26.40;90.80;;;;;;6207533;23;19997;-93
2020/12/27 13:05:31;;;;;;;6.75;3.30;;;26.50;90.90;;;;;;6206918;23;19996;-91
2020/12/27 13:08:00;;;;;;;3.85;2.90;;;26.50;90.70;;;;;;6230496;23;19992;-92
2020/12/27 13:10:27;;;;;;;6.88;2.78;;;26.50;90.60;;;;;;6230979;23;20170;-92
2020/12/27 13:12:53;;;;;;;7.03;3.33;;;26.60;90.80;;;;;;6203235;23;20057;-91
2020/12/27 13:15:20;;;;;;;4.50;3.08;;;26.70;90.50;;;;;;6201342;23;19992;-92
2020/12/27 13:17:47;;;;;;;3.75;2.50;;;26.90;90.50;;;;;;6202115;23;20012;-92
2020/12/27 13:20:18;;;;;;;5.53;3.10;;;26.90;90.30;;;;;;6203714;23;20281;-93
2020/12/27 13:27:59;;;;;;;4.72;2.78;;;27.40;89.20;;;;;;6173050;23;20257;-92
2020/12/27 13:30:33;;;;;;;8.95;4.43;;;27.50;88.10;;;;;;6168143;23;20008;-94
2020/12/27 13:33:00;;;;;;;7.68;2.90;;;27.50;87.00;;;;;;6143056;23;19994;-93
2020/12/27 13:35:26;;;;;;;6.35;2.85;;;27.50;85.10;;;;;;6142022;23;19994;-93
2020/12/27 13:37:56;;;;;;;6.25;2.85;;;27.40;85.80;;;;;;6142233;23;20016;-94
2020/12/27 13:40:23;;;;;;;5.45;2.85;;;27.40;86.30;;;;;;6168027;23;19997;-94
2020/12/27 13:42:49;;;;;;;3.95;2.88;;;27.30;84.60;;;;;;6173067;23;20018;-93
2020/12/27 13:45:18;;;;;;;5.03;2.60;;;27.30;85.50;;;;;;6175537;23;19996;-93
2020/12/27 13:47:44;;;;;;;4.03;2.50;;;27.30;84.10;;;;;;6173163;23;20004;-93
2020/12/27 13:50:11;;;;;;;5.82;3.03;;;27.30;85.20;;;;;;6172241;23;20035;-93
2020/12/27 13:52:41;;;;;;;6.82;2.83;;;27.20;85.40;;;;;;6172291;23;20005;-92
2020/12/27 13:55:07;;;;;;;7.80;3.15;;;27.30;86.50;;;;;;6171536;23;19993;-92
2020/12/27 13:57:35;;;;;;;6.15;2.45;;;27.30;85.20;;;;;;6173417;23;19997;-92
2020/12/27 14:00:03;;;;;;;8.90;3.28;;;27.20;86.00;;;;;;6172226;23;20059;-95
2020/12/27 14:02:30;;;;;;;5.18;2.72;;;27.50;86.50;;;;;;6172983;23;20000;-94
2020/12/27 14:04:56;;;;;;;8.38;3.10;;;27.60;84.90;;;;;;6172468;23;20068;-92
2020/12/27 14:07:23;;;;;;;7.68;3.10;;;27.70;84.60;;;;;;6171692;23;20001;-93
2020/12/27 14:09:54;;;;;;;5.35;3.67;;;27.70;85.00;;;;;;6171485;23;20053;-92
2020/12/27 14:12:24;;;;;;;5.07;2.80;;;27.50;84.30;;;;;;6171721;23;20004;-93
2020/12/27 14:14:58;;;;;;;3.95;2.55;;;27.40;85.00;;;;;;6171619;23;19997;-93
2020/12/27 14:17:25;;;;;;;4.00;2.80;;;27.20;85.20;;;;;;6171296;23;20001;-93
2020/12/27 14:19:51;;;;;;;7.35;4.03;;;27.10;85.50;;;;;;6171120;23;20001;-92
2020/12/27 14:22:18;;;;;;;8.15;4.50;;;27.10;86.10;;;;;;6171199;23;20017;-92
2020/12/27 14:24:45;;;;;;;5.10;3.00;;;27.10;87.30;;;;;;6172245;23;20229;-90
2020/12/27 14:27:11;;;;;;;7.72;3.08;;;26.90;86.10;;;;;;6171890;23;20044;-90
2020/12/27 14:29:42;;;;;;;7.88;4.50;;;26.90;87.60;;;;;;6173295;23;20221;-90
2020/12/27 14:32:29;;;;;;;17.33;7.80;;;27.00;87.30;;;;;;6175857;23;20285;-96
2020/12/27 14:34:55;;;;;;;13.43;6.15;;;27.10;87.50;;;;;;6175303;23;20001;-92
2020/12/27 14:37:22;;;;;;;13.07;4.90;;;27.10;86.80;;;;;;6176346;23;20008;-94
2020/12/27 14:39:49;;;;;;;5.72;3.05;;;27.00;87.00;;;;;;6173549;23;20004;-95
2020/12/27 14:42:20;;;;;;;8.05;3.10;;;27.10;86.10;;;;;;6175473;23;19997;-95
2020/12/27 14:44:47;;;;;;;5.88;2.20;;;27.10;87.50;;;;;;6173838;23;20004;-96
2020/12/27 14:47:14;;;;;;;7.20;2.63;;;27.30;86.20;;;;;;6174887;23;20242;-94
2020/12/27 14:49:44;;;;;;;3.70;2.22;;;27.60;86.30;;;;;;6174241;23;20000;-96
2020/12/27 14:52:15;;;;;;;2.65;1.60;;;28.00;85.30;;;;;;6178487;23;20013;-93
2020/12/27 14:54:56;;;;;;;2.90;1.70;;;28.90;81.70;;;;;;6177581;23;20002;-94
2020/12/27 14:57:52;;;;;;;2.13;1.37;;;29.20;80.00;;;;;;6157081;23;20008;-93
2020/12/27 15:00:34;;;;;;;2.67;1.70;;;28.90;79.30;;;;;;6178951;23;20012;-94
2020/12/27 15:03:00;;;;;;;5.47;1.90;;;28.60;80.30;;;;;;6109775;23;20002;-93
2020/12/27 15:05:27;;;;;;;11.73;4.57;;;28.50;80.10;;;;;;6174398;23;20004;-95
2020/12/27 15:08:17;;;;;;;10.02;6.10;;;28.80;80.80;;;;;;6208187;23;20059;-92
2020/12/27 15:11:01;;;;;;;11.38;4.25;;;29.60;79.50;;;;;;6176553;23;20047;-90
2020/12/27 15:13:29;;;;;;;20.30;9.52;;;30.20;76.40;;;;;;6177576;23;20048;-91
2020/12/27 15:16:16;;;;;;;7.55;4.20;;;30.40;74.30;;;;;;6174089;23;20008;-92
2020/12/27 15:18:59;;;;;;;5.72;2.20;;;30.40;75.40;;;;;;6176606;23;19993;-93
2020/12/27 15:21:25;;;;;;;1.70;1.30;;;30.40;75.70;;;;;;6146714;23;20934;-92
2020/12/27 15:30:12;;;;;;;3.22;1.98;;;31.00;73.10;;;;;;6238690;23;20011;-92
2020/12/27 15:32:51;;;;;;;3.30;1.65;;;31.30;71.40;;;;;;6237224;23;20056;-92
2020/12/27 15:35:40;;;;;;;12.15;6.25;;;31.40;69.80;;;;;;6213308;23;20000;-94
2020/12/27 15:38:12;;;;;;;2.40;1.80;;;31.80;69.70;;;;;;6208873;23;20048;-93